sensor_id;sensor_type;location;lat;lon;timestamp;P1;durP1;ratioP1;P2;durP2;ratioP2
11835;SDS011;5977;51.972;7.640;2023-06-26T00:00:05;162.27;;;57.63;;
11835;SDS011;5977;51.972;7.640;2023-06-26T00:02:34;162.67;;;58.10;;
11835;SDS011;5977;51.972;7.640;2023-06-26T00:05:02;162.53;;;57.60;;
11835;SDS011;5977;51.972;7.640;2023-06-26T00:07:31;162.50;;;56.80;;
11835;SDS011;5977;51.972;7.640;2023-06-26T00:10:01;163.10;;;58.37;;
11835;SDS011;5977;51.972;7.640;2023-06-26T00:12:30;163.33;;;57.97;;
11835;SDS011;5977;51.972;7.640;2023-06-26T00:14:58;163.67;;;58.13;;
11835;SDS011;5977;51.972;7.640;2023-06-26T00:17:26;163.07;;;57.90;;
11835;SDS011;5977;51.972;7.640;2023-06-26T00:19:54;162.93;;;58.03;;
11835;SDS011;5977;51.972;7.640;2023-06-26T00:22:22;163.20;;;58.00;;
11835;SDS011;5977;51.972;7.640;2023-06-26T00:24:51;163.20;;;58.00;;
11835;SDS011;5977;51.972;7.640;2023-06-26T00:27:20;163.27;;;57.77;;
11835;SDS011;5977;51.972;7.640;2023-06-26T00:29:47;162.90;;;57.63;;
11835;SDS011;5977;51.972;7.640;2023-06-26T00:32:16;163.03;;;57.80;;
11835;SDS011;5977;51.972;7.640;2023-06-26T00:34:44;163.23;;;57.80;;
11835;SDS011;5977;51.972;7.640;2023-06-26T00:37:14;163.40;;;57.63;;
11835;SDS011;5977;51.972;7.640;2023-06-26T00:39:42;162.93;;;57.50;;
11835;SDS011;5977;51.972;7.640;2023-06-26T00:42:11;163.53;;;57.40;;
11835;SDS011;5977;51.972;7.640;2023-06-26T00:44:39;162.57;;;56.67;;
11835;SDS011;5977;51.972;7.640;2023-06-26T00:47:07;162.97;;;57.40;;
11835;SDS011;5977;51.972;7.640;2023-06-26T00:49:36;162.77;;;57.03;;
11835;SDS011;5977;51.972;7.640;2023-06-26T00:52:04;162.70;;;56.93;;
11835;SDS011;5977;51.972;7.640;2023-06-26T00:54:33;162.53;;;57.33;;
11835;SDS011;5977;51.972;7.640;2023-06-26T00:57:01;163.30;;;57.47;;
11835;SDS011;5977;51.972;7.640;2023-06-26T00:59:30;162.93;;;57.40;;
11835;SDS011;5977;51.972;7.640;2023-06-26T01:01:58;163.13;;;57.70;;
11835;SDS011;5977;51.972;7.640;2023-06-26T01:04:26;162.87;;;57.23;;
11835;SDS011;5977;51.972;7.640;2023-06-26T01:06:58;163.67;;;58.00;;
11835;SDS011;5977;51.972;7.640;2023-06-26T01:09:28;162.17;;;56.33;;
11835;SDS011;5977;51.972;7.640;2023-06-26T01:11:57;162.30;;;56.87;;
11835;SDS011;5977;51.972;7.640;2023-06-26T01:14:25;163.90;;;57.87;;
11835;SDS011;5977;51.972;7.640;2023-06-26T01:16:55;163.23;;;57.53;;
11835;SDS011;5977;51.972;7.640;2023-06-26T01:19:24;163.00;;;57.00;;
11835;SDS011;5977;51.972;7.640;2023-06-26T01:21:56;163.97;;;57.87;;
11835;SDS011;5977;51.972;7.640;2023-06-26T01:24:30;163.53;;;57.30;;
11835;SDS011;5977;51.972;7.640;2023-06-26T01:27:04;163.77;;;57.67;;
11835;SDS011;5977;51.972;7.640;2023-06-26T01:29:33;162.97;;;57.57;;
11835;SDS011;5977;51.972;7.640;2023-06-26T01:32:02;163.33;;;57.30;;
11835;SDS011;5977;51.972;7.640;2023-06-26T01:34:30;162.53;;;56.23;;
11835;SDS011;5977;51.972;7.640;2023-06-26T01:36:59;163.03;;;57.30;;
11835;SDS011;5977;51.972;7.640;2023-06-26T01:39:26;162.87;;;57.47;;
11835;SDS011;5977;51.972;7.640;2023-06-26T01:41:54;163.53;;;57.47;;
11835;SDS011;5977;51.972;7.640;2023-06-26T01:44:25;162.80;;;56.67;;
11835;SDS011;5977;51.972;7.640;2023-06-26T01:46:58;163.93;;;57.47;;
11835;SDS011;5977;51.972;7.640;2023-06-26T01:49:30;162.90;;;56.67;;
11835;SDS011;5977;51.972;7.640;2023-06-26T01:52:08;162.90;;;57.20;;
11835;SDS011;5977;51.972;7.640;2023-06-26T01:54:54;163.27;;;57.40;;
11835;SDS011;5977;51.972;7.640;2023-06-26T01:57:26;162.77;;;57.30;;
11835;SDS011;5977;51.972;7.640;2023-06-26T01:59:56;163.37;;;57.63;;
11835;SDS011;5977;51.972;7.640;2023-06-26T02:02:27;163.00;;;57.33;;
11835;SDS011;5977;51.972;7.640;2023-06-26T02:04:56;164.03;;;57.57;;
11835;SDS011;5977;51.972;7.640;2023-06-26T02:07:24;163.13;;;57.40;;
11835;SDS011;5977;51.972;7.640;2023-06-26T02:09:54;162.93;;;56.87;;
11835;SDS011;5977;51.972;7.640;2023-06-26T02:12:22;163.40;;;56.90;;
11835;SDS011;5977;51.972;7.640;2023-06-26T02:14:50;164.13;;;57.63;;
11835;SDS011;5977;51.972;7.640;2023-06-26T02:17:24;163.10;;;57.00;;
11835;SDS011;5977;51.972;7.640;2023-06-26T02:19:54;163.93;;;57.53;;
11835;SDS011;5977;51.972;7.640;2023-06-26T02:22:22;162.80;;;57.00;;
11835;SDS011;5977;51.972;7.640;2023-06-26T02:24:49;162.53;;;56.77;;
11835;SDS011;5977;51.972;7.640;2023-06-26T02:27:17;162.73;;;56.37;;
11835;SDS011;5977;51.972;7.640;2023-06-26T02:29:45;162.77;;;56.80;;
11835;SDS011;5977;51.972;7.640;2023-06-26T02:32:13;162.87;;;56.23;;
11835;SDS011;5977;51.972;7.640;2023-06-26T02:34:42;163.50;;;57.27;;
11835;SDS011;5977;51.972;7.640;2023-06-26T02:37:10;163.30;;;57.03;;
11835;SDS011;5977;51.972;7.640;2023-06-26T02:39:38;162.47;;;56.07;;
11835;SDS011;5977;51.972;7.640;2023-06-26T02:42:08;162.77;;;56.27;;
11835;SDS011;5977;51.972;7.640;2023-06-26T02:44:36;163.13;;;56.63;;
11835;SDS011;5977;51.972;7.640;2023-06-26T02:47:04;163.33;;;57.00;;
11835;SDS011;5977;51.972;7.640;2023-06-26T02:49:36;163.30;;;57.07;;
11835;SDS011;5977;51.972;7.640;2023-06-26T02:52:05;164.07;;;57.60;;
11835;SDS011;5977;51.972;7.640;2023-06-26T02:54:33;163.90;;;57.37;;
11835;SDS011;5977;51.972;7.640;2023-06-26T02:57:03;162.97;;;56.67;;
11835;SDS011;5977;51.972;7.640;2023-06-26T02:59:33;163.83;;;56.87;;
11835;SDS011;5977;51.972;7.640;2023-06-26T03:02:01;163.90;;;57.43;;
11835;SDS011;5977;51.972;7.640;2023-06-26T03:04:35;163.13;;;56.90;;
11835;SDS011;5977;51.972;7.640;2023-06-26T03:07:06;163.40;;;57.47;;
11835;SDS011;5977;51.972;7.640;2023-06-26T03:09:35;163.87;;;57.77;;
11835;SDS011;5977;51.972;7.640;2023-06-26T03:12:03;162.80;;;56.63;;
11835;SDS011;5977;51.972;7.640;2023-06-26T03:14:33;163.07;;;56.47;;
11835;SDS011;5977;51.972;7.640;2023-06-26T03:17:01;164.17;;;57.80;;
11835;SDS011;5977;51.972;7.640;2023-06-26T03:19:31;163.40;;;56.67;;
11835;SDS011;5977;51.972;7.640;2023-06-26T03:22:19;163.70;;;57.57;;
11835;SDS011;5977;51.972;7.640;2023-06-26T03:24:47;163.67;;;57.43;;
11835;SDS011;5977;51.972;7.640;2023-06-26T03:27:15;163.77;;;57.13;;
11835;SDS011;5977;51.972;7.640;2023-06-26T03:29:46;162.70;;;56.77;;
11835;SDS011;5977;51.972;7.640;2023-06-26T03:32:14;163.73;;;56.83;;
11835;SDS011;5977;51.972;7.640;2023-06-26T03:34:43;162.77;;;56.47;;
11835;SDS011;5977;51.972;7.640;2023-06-26T03:37:11;163.73;;;57.67;;
11835;SDS011;5977;51.972;7.640;2023-06-26T03:39:40;162.53;;;56.20;;
11835;SDS011;5977;51.972;7.640;2023-06-26T03:42:08;163.93;;;56.77;;
11835;SDS011;5977;51.972;7.640;2023-06-26T03:44:37;163.30;;;56.97;;
11835;SDS011;5977;51.972;7.640;2023-06-26T03:47:04;163.73;;;57.27;;
11835;SDS011;5977;51.972;7.640;2023-06-26T03:49:34;162.73;;;56.70;;
11835;SDS011;5977;51.972;7.640;2023-06-26T03:52:03;163.70;;;57.57;;
11835;SDS011;5977;51.972;7.640;2023-06-26T03:54:32;163.20;;;56.80;;
11835;SDS011;5977;51.972;7.640;2023-06-26T03:57:01;162.90;;;56.37;;
11835;SDS011;5977;51.972;7.640;2023-06-26T03:59:29;163.17;;;57.27;;
11835;SDS011;5977;51.972;7.640;2023-06-26T04:01:57;163.10;;;57.10;;
11835;SDS011;5977;51.972;7.640;2023-06-26T04:04:25;162.63;;;56.77;;
11835;SDS011;5977;51.972;7.640;2023-06-26T04:06:54;163.17;;;56.93;;
11835;SDS011;5977;51.972;7.640;2023-06-26T04:09:22;163.23;;;57.17;;
11835;SDS011;5977;51.972;7.640;2023-06-26T04:11:50;163.60;;;57.53;;
11835;SDS011;5977;51.972;7.640;2023-06-26T04:14:19;163.67;;;57.23;;
11835;SDS011;5977;51.972;7.640;2023-06-26T04:16:47;162.70;;;56.30;;
11835;SDS011;5977;51.972;7.640;2023-06-26T04:19:16;163.57;;;57.67;;
11835;SDS011;5977;51.972;7.640;2023-06-26T04:21:44;163.13;;;57.13;;
11835;SDS011;5977;51.972;7.640;2023-06-26T04:24:12;162.87;;;57.10;;
11835;SDS011;5977;51.972;7.640;2023-06-26T04:26:41;162.93;;;56.83;;
11835;SDS011;5977;51.972;7.640;2023-06-26T04:29:09;163.03;;;57.27;;
11835;SDS011;5977;51.972;7.640;2023-06-26T04:31:39;163.77;;;57.67;;
11835;SDS011;5977;51.972;7.640;2023-06-26T04:34:07;163.07;;;57.63;;
11835;SDS011;5977;51.972;7.640;2023-06-26T04:36:35;162.47;;;57.27;;
11835;SDS011;5977;51.972;7.640;2023-06-26T04:39:05;163.23;;;57.77;;
11835;SDS011;5977;51.972;7.640;2023-06-26T04:41:33;162.00;;;56.60;;
11835;SDS011;5977;51.972;7.640;2023-06-26T04:44:01;163.13;;;57.93;;
11835;SDS011;5977;51.972;7.640;2023-06-26T04:46:29;162.47;;;58.00;;
11835;SDS011;5977;51.972;7.640;2023-06-26T04:48:58;163.17;;;57.77;;
11835;SDS011;5977;51.972;7.640;2023-06-26T04:51:26;162.60;;;57.80;;
11835;SDS011;5977;51.972;7.640;2023-06-26T04:53:55;163.40;;;58.93;;
11835;SDS011;5977;51.972;7.640;2023-06-26T04:56:23;163.10;;;58.43;;
11835;SDS011;5977;51.972;7.640;2023-06-26T04:58:50;163.17;;;58.47;;
11835;SDS011;5977;51.972;7.640;2023-06-26T05:01:18;162.67;;;58.40;;
11835;SDS011;5977;51.972;7.640;2023-06-26T05:03:46;162.97;;;58.63;;
11835;SDS011;5977;51.972;7.640;2023-06-26T05:06:15;162.80;;;58.37;;
11835;SDS011;5977;51.972;7.640;2023-06-26T05:08:43;163.10;;;58.70;;
11835;SDS011;5977;51.972;7.640;2023-06-26T05:11:11;162.33;;;58.57;;
11835;SDS011;5977;51.972;7.640;2023-06-26T05:13:39;162.13;;;57.70;;
11835;SDS011;5977;51.972;7.640;2023-06-26T05:16:08;162.13;;;57.80;;
11835;SDS011;5977;51.972;7.640;2023-06-26T05:18:36;162.37;;;58.27;;
11835;SDS011;5977;51.972;7.640;2023-06-26T05:21:04;161.73;;;57.63;;
11835;SDS011;5977;51.972;7.640;2023-06-26T05:23:34;162.77;;;58.37;;
11835;SDS011;5977;51.972;7.640;2023-06-26T05:26:02;162.60;;;58.73;;
11835;SDS011;5977;51.972;7.640;2023-06-26T05:28:31;162.53;;;58.10;;
11835;SDS011;5977;51.972;7.640;2023-06-26T05:30:59;163.60;;;58.40;;
11835;SDS011;5977;51.972;7.640;2023-06-26T05:33:27;162.77;;;58.13;;
11835;SDS011;5977;51.972;7.640;2023-06-26T05:35:56;163.53;;;58.97;;
11835;SDS011;5977;51.972;7.640;2023-06-26T05:38:25;162.80;;;58.53;;
11835;SDS011;5977;51.972;7.640;2023-06-26T05:40:55;162.70;;;58.37;;
11835;SDS011;5977;51.972;7.640;2023-06-26T05:43:24;162.90;;;58.53;;
11835;SDS011;5977;51.972;7.640;2023-06-26T05:45:55;162.03;;;57.73;;
11835;SDS011;5977;51.972;7.640;2023-06-26T05:48:24;163.47;;;58.63;;
11835;SDS011;5977;51.972;7.640;2023-06-26T05:50:52;162.93;;;58.53;;
11835;SDS011;5977;51.972;7.640;2023-06-26T05:53:20;163.30;;;58.43;;
11835;SDS011;5977;51.972;7.640;2023-06-26T05:55:49;162.50;;;58.67;;
11835;SDS011;5977;51.972;7.640;2023-06-26T05:58:18;163.00;;;58.13;;
11835;SDS011;5977;51.972;7.640;2023-06-26T06:00:48;163.40;;;58.50;;
11835;SDS011;5977;51.972;7.640;2023-06-26T06:03:16;163.07;;;58.47;;
11835;SDS011;5977;51.972;7.640;2023-06-26T06:05:44;163.47;;;59.53;;
11835;SDS011;5977;51.972;7.640;2023-06-26T06:08:12;162.17;;;58.00;;
11835;SDS011;5977;51.972;7.640;2023-06-26T06:10:40;161.70;;;57.33;;
11835;SDS011;5977;51.972;7.640;2023-06-26T06:13:08;162.50;;;58.37;;
11835;SDS011;5977;51.972;7.640;2023-06-26T06:15:37;162.10;;;58.33;;
11835;SDS011;5977;51.972;7.640;2023-06-26T06:18:05;162.23;;;58.20;;
11835;SDS011;5977;51.972;7.640;2023-06-26T06:20:33;162.83;;;58.90;;
11835;SDS011;5977;51.972;7.640;2023-06-26T06:23:03;163.07;;;59.30;;
11835;SDS011;5977;51.972;7.640;2023-06-26T06:25:31;161.97;;;58.20;;
11835;SDS011;5977;51.972;7.640;2023-06-26T06:27:58;161.93;;;58.30;;
11835;SDS011;5977;51.972;7.640;2023-06-26T06:30:26;162.63;;;58.97;;
11835;SDS011;5977;51.972;7.640;2023-06-26T06:33:01;162.07;;;58.63;;
11835;SDS011;5977;51.972;7.640;2023-06-26T06:35:30;161.90;;;58.07;;
11835;SDS011;5977;51.972;7.640;2023-06-26T06:37:58;162.93;;;59.27;;
11835;SDS011;5977;51.972;7.640;2023-06-26T06:40:25;162.20;;;58.60;;
11835;SDS011;5977;51.972;7.640;2023-06-26T06:42:54;163.13;;;59.07;;
11835;SDS011;5977;51.972;7.640;2023-06-26T06:45:22;162.23;;;58.77;;
11835;SDS011;5977;51.972;7.640;2023-06-26T06:47:50;162.50;;;58.70;;
11835;SDS011;5977;51.972;7.640;2023-06-26T06:50:19;162.60;;;58.60;;
11835;SDS011;5977;51.972;7.640;2023-06-26T06:52:47;163.33;;;58.83;;
11835;SDS011;5977;51.972;7.640;2023-06-26T06:55:15;163.20;;;59.23;;
11835;SDS011;5977;51.972;7.640;2023-06-26T06:57:43;162.20;;;58.37;;
11835;SDS011;5977;51.972;7.640;2023-06-26T07:00:11;162.03;;;58.20;;
11835;SDS011;5977;51.972;7.640;2023-06-26T07:02:42;162.83;;;58.80;;
11835;SDS011;5977;51.972;7.640;2023-06-26T07:05:11;162.67;;;58.40;;
11835;SDS011;5977;51.972;7.640;2023-06-26T07:07:41;162.17;;;58.47;;
11835;SDS011;5977;51.972;7.640;2023-06-26T07:10:09;162.07;;;58.20;;
11835;SDS011;5977;51.972;7.640;2023-06-26T07:12:39;162.43;;;58.30;;
11835;SDS011;5977;51.972;7.640;2023-06-26T07:15:07;162.20;;;58.27;;
11835;SDS011;5977;51.972;7.640;2023-06-26T07:17:35;160.70;;;56.77;;
11835;SDS011;5977;51.972;7.640;2023-06-26T07:20:05;162.40;;;58.80;;
11835;SDS011;5977;51.972;7.640;2023-06-26T07:22:36;162.60;;;58.47;;
11835;SDS011;5977;51.972;7.640;2023-06-26T07:25:06;162.27;;;58.13;;
11835;SDS011;5977;51.972;7.640;2023-06-26T07:27:35;163.57;;;59.30;;
11835;SDS011;5977;51.972;7.640;2023-06-26T07:30:04;163.13;;;59.13;;
11835;SDS011;5977;51.972;7.640;2023-06-26T07:32:34;163.00;;;59.10;;
11835;SDS011;5977;51.972;7.640;2023-06-26T07:35:03;162.77;;;59.03;;
11835;SDS011;5977;51.972;7.640;2023-06-26T07:37:32;163.23;;;59.67;;
11835;SDS011;5977;51.972;7.640;2023-06-26T07:39:59;163.20;;;59.90;;
11835;SDS011;5977;51.972;7.640;2023-06-26T07:42:29;163.03;;;59.87;;
11835;SDS011;5977;51.972;7.640;2023-06-26T07:44:57;161.87;;;58.70;;
11835;SDS011;5977;51.972;7.640;2023-06-26T07:47:25;162.57;;;59.37;;
11835;SDS011;5977;51.972;7.640;2023-06-26T07:49:53;162.67;;;59.50;;
11835;SDS011;5977;51.972;7.640;2023-06-26T07:52:21;162.50;;;59.23;;
11835;SDS011;5977;51.972;7.640;2023-06-26T07:54:49;162.23;;;58.60;;
11835;SDS011;5977;51.972;7.640;2023-06-26T07:57:17;162.37;;;58.40;;
11835;SDS011;5977;51.972;7.640;2023-06-26T07:59:46;162.00;;;58.50;;
11835;SDS011;5977;51.972;7.640;2023-06-26T08:02:14;162.03;;;59.17;;
11835;SDS011;5977;51.972;7.640;2023-06-26T08:04:43;162.67;;;58.70;;
11835;SDS011;5977;51.972;7.640;2023-06-26T08:07:11;162.87;;;59.50;;
11835;SDS011;5977;51.972;7.640;2023-06-26T08:09:40;162.93;;;59.17;;
11835;SDS011;5977;51.972;7.640;2023-06-26T08:12:08;162.20;;;58.67;;
11835;SDS011;5977;51.972;7.640;2023-06-26T08:14:38;161.10;;;58.30;;
11835;SDS011;5977;51.972;7.640;2023-06-26T08:17:08;162.40;;;60.23;;
11835;SDS011;5977;51.972;7.640;2023-06-26T08:19:36;161.83;;;60.47;;
11835;SDS011;5977;51.972;7.640;2023-06-26T08:22:04;162.77;;;61.23;;
11835;SDS011;5977;51.972;7.640;2023-06-26T08:24:32;162.33;;;60.70;;
11835;SDS011;5977;51.972;7.640;2023-06-26T08:27:00;162.30;;;60.70;;
11835;SDS011;5977;51.972;7.640;2023-06-26T08:29:29;161.80;;;59.80;;
11835;SDS011;5977;51.972;7.640;2023-06-26T08:31:57;162.17;;;59.30;;
11835;SDS011;5977;51.972;7.640;2023-06-26T08:34:26;163.10;;;60.13;;
11835;SDS011;5977;51.972;7.640;2023-06-26T08:36:54;162.63;;;59.47;;
11835;SDS011;5977;51.972;7.640;2023-06-26T08:39:22;162.20;;;58.53;;
11835;SDS011;5977;51.972;7.640;2023-06-26T08:41:50;163.23;;;59.67;;
11835;SDS011;5977;51.972;7.640;2023-06-26T08:44:18;163.03;;;59.20;;
11835;SDS011;5977;51.972;7.640;2023-06-26T08:46:50;163.20;;;59.33;;
11835;SDS011;5977;51.972;7.640;2023-06-26T08:49:19;162.97;;;59.03;;
11835;SDS011;5977;51.972;7.640;2023-06-26T08:51:51;162.70;;;58.60;;
11835;SDS011;5977;51.972;7.640;2023-06-26T08:54:25;162.93;;;59.23;;
11835;SDS011;5977;51.972;7.640;2023-06-26T08:56:57;163.17;;;58.83;;
11835;SDS011;5977;51.972;7.640;2023-06-26T08:59:26;162.47;;;58.40;;
11835;SDS011;5977;51.972;7.640;2023-06-26T09:01:55;162.90;;;59.03;;
11835;SDS011;5977;51.972;7.640;2023-06-26T09:04:24;162.60;;;58.47;;
11835;SDS011;5977;51.972;7.640;2023-06-26T09:06:54;163.30;;;59.10;;
11835;SDS011;5977;51.972;7.640;2023-06-26T09:09:22;162.10;;;57.77;;
11835;SDS011;5977;51.972;7.640;2023-06-26T09:11:50;162.77;;;58.30;;
11835;SDS011;5977;51.972;7.640;2023-06-26T09:14:17;163.23;;;58.77;;
11835;SDS011;5977;51.972;7.640;2023-06-26T09:16:45;163.50;;;58.70;;
11835;SDS011;5977;51.972;7.640;2023-06-26T09:19:14;163.23;;;58.43;;
11835;SDS011;5977;51.972;7.640;2023-06-26T09:21:43;163.47;;;58.37;;
11835;SDS011;5977;51.972;7.640;2023-06-26T09:24:12;162.93;;;58.97;;
11835;SDS011;5977;51.972;7.640;2023-06-26T09:26:40;163.17;;;58.80;;
11835;SDS011;5977;51.972;7.640;2023-06-26T09:29:10;163.90;;;59.33;;
11835;SDS011;5977;51.972;7.640;2023-06-26T09:31:40;162.70;;;58.40;;
11835;SDS011;5977;51.972;7.640;2023-06-26T09:34:09;163.17;;;58.83;;
11835;SDS011;5977;51.972;7.640;2023-06-26T09:36:37;164.10;;;59.30;;
11835;SDS011;5977;51.972;7.640;2023-06-26T09:39:06;162.97;;;58.33;;
11835;SDS011;5977;51.972;7.640;2023-06-26T09:41:40;162.83;;;58.20;;
11835;SDS011;5977;51.972;7.640;2023-06-26T09:44:10;162.17;;;57.97;;
11835;SDS011;5977;51.972;7.640;2023-06-26T09:46:39;162.73;;;58.27;;
11835;SDS011;5977;51.972;7.640;2023-06-26T09:49:08;163.07;;;58.67;;
11835;SDS011;5977;51.972;7.640;2023-06-26T09:51:38;163.07;;;59.00;;
11835;SDS011;5977;51.972;7.640;2023-06-26T09:54:07;161.80;;;58.10;;
11835;SDS011;5977;51.972;7.640;2023-06-26T09:56:36;162.43;;;58.07;;
11835;SDS011;5977;51.972;7.640;2023-06-26T09:59:06;163.43;;;58.80;;
11835;SDS011;5977;51.972;7.640;2023-06-26T10:01:39;162.90;;;58.47;;
11835;SDS011;5977;51.972;7.640;2023-06-26T10:04:08;162.70;;;58.53;;
11835;SDS011;5977;51.972;7.640;2023-06-26T10:06:38;163.67;;;59.27;;
11835;SDS011;5977;51.972;7.640;2023-06-26T10:09:09;162.40;;;58.57;;
11835;SDS011;5977;51.972;7.640;2023-06-26T10:11:40;161.97;;;57.80;;
11835;SDS011;5977;51.972;7.640;2023-06-26T10:14:12;162.33;;;58.30;;
11835;SDS011;5977;51.972;7.640;2023-06-26T10:16:44;162.03;;;57.50;;
11835;SDS011;5977;51.972;7.640;2023-06-26T10:19:13;162.90;;;58.57;;
11835;SDS011;5977;51.972;7.640;2023-06-26T10:21:43;162.03;;;58.10;;
11835;SDS011;5977;51.972;7.640;2023-06-26T10:24:11;162.73;;;58.97;;
11835;SDS011;5977;51.972;7.640;2023-06-26T10:26:42;163.07;;;59.00;;
11835;SDS011;5977;51.972;7.640;2023-06-26T10:29:14;163.30;;;58.90;;
11835;SDS011;5977;51.972;7.640;2023-06-26T10:31:45;162.63;;;58.53;;
11835;SDS011;5977;51.972;7.640;2023-06-26T10:34:17;162.30;;;58.70;;
11835;SDS011;5977;51.972;7.640;2023-06-26T10:36:45;163.23;;;59.20;;
11835;SDS011;5977;51.972;7.640;2023-06-26T10:39:14;162.73;;;59.07;;
11835;SDS011;5977;51.972;7.640;2023-06-26T10:41:45;162.87;;;59.20;;
11835;SDS011;5977;51.972;7.640;2023-06-26T10:44:31;162.43;;;58.20;;
11835;SDS011;5977;51.972;7.640;2023-06-26T10:47:09;162.10;;;58.57;;
11835;SDS011;5977;51.972;7.640;2023-06-26T10:49:38;162.17;;;58.23;;
11835;SDS011;5977;51.972;7.640;2023-06-26T10:52:07;162.47;;;58.07;;
11835;SDS011;5977;51.972;7.640;2023-06-26T10:54:35;161.90;;;57.90;;
11835;SDS011;5977;51.972;7.640;2023-06-26T10:57:04;162.93;;;58.73;;
11835;SDS011;5977;51.972;7.640;2023-06-26T10:59:38;162.27;;;58.57;;
11835;SDS011;5977;51.972;7.640;2023-06-26T11:02:07;162.83;;;58.80;;
11835;SDS011;5977;51.972;7.640;2023-06-26T11:04:37;162.57;;;58.60;;
11835;SDS011;5977;51.972;7.640;2023-06-26T11:07:16;162.80;;;58.27;;
11835;SDS011;5977;51.972;7.640;2023-06-26T11:09:56;162.97;;;58.60;;
11835;SDS011;5977;51.972;7.640;2023-06-26T11:12:34;162.63;;;58.77;;
11835;SDS011;5977;51.972;7.640;2023-06-26T11:15:10;162.03;;;58.00;;
11835;SDS011;5977;51.972;7.640;2023-06-26T11:17:40;161.97;;;58.60;;
11835;SDS011;5977;51.972;7.640;2023-06-26T11:20:09;162.90;;;58.97;;
11835;SDS011;5977;51.972;7.640;2023-06-26T11:22:38;162.33;;;58.47;;
11835;SDS011;5977;51.972;7.640;2023-06-26T11:25:08;162.50;;;58.67;;
11835;SDS011;5977;51.972;7.640;2023-06-26T11:27:38;162.33;;;58.43;;
11835;SDS011;5977;51.972;7.640;2023-06-26T11:30:06;161.60;;;57.73;;
11835;SDS011;5977;51.972;7.640;2023-06-26T11:32:37;161.70;;;58.20;;
11835;SDS011;5977;51.972;7.640;2023-06-26T11:35:06;162.13;;;58.70;;
11835;SDS011;5977;51.972;7.640;2023-06-26T11:37:35;162.13;;;58.43;;
11835;SDS011;5977;51.972;7.640;2023-06-26T11:40:16;162.20;;;58.37;;
11835;SDS011;5977;51.972;7.640;2023-06-26T11:42:45;161.93;;;58.57;;
11835;SDS011;5977;51.972;7.640;2023-06-26T11:45:13;162.47;;;58.93;;
11835;SDS011;5977;51.972;7.640;2023-06-26T11:47:42;162.00;;;58.73;;
11835;SDS011;5977;51.972;7.640;2023-06-26T11:50:14;162.53;;;58.77;;
11835;SDS011;5977;51.972;7.640;2023-06-26T11:52:43;162.60;;;58.87;;
11835;SDS011;5977;51.972;7.640;2023-06-26T11:55:11;162.00;;;57.80;;
11835;SDS011;5977;51.972;7.640;2023-06-26T11:57:39;162.00;;;58.63;;
11835;SDS011;5977;51.972;7.640;2023-06-26T12:00:11;162.87;;;59.27;;
11835;SDS011;5977;51.972;7.640;2023-06-26T12:02:39;161.67;;;58.63;;
11835;SDS011;5977;51.972;7.640;2023-06-26T12:05:09;160.67;;;57.47;;
11835;SDS011;5977;51.972;7.640;2023-06-26T12:07:37;162.37;;;58.83;;
11835;SDS011;5977;51.972;7.640;2023-06-26T12:10:06;161.77;;;57.83;;
11835;SDS011;5977;51.972;7.640;2023-06-26T12:12:35;162.40;;;58.73;;
11835;SDS011;5977;51.972;7.640;2023-06-26T12:15:04;162.07;;;58.80;;
11835;SDS011;5977;51.972;7.640;2023-06-26T12:17:36;161.80;;;58.17;;
11835;SDS011;5977;51.972;7.640;2023-06-26T12:20:16;161.97;;;59.00;;
11835;SDS011;5977;51.972;7.640;2023-06-26T12:22:47;162.00;;;58.77;;
11835;SDS011;5977;51.972;7.640;2023-06-26T12:25:20;162.33;;;59.73;;
11835;SDS011;5977;51.972;7.640;2023-06-26T12:27:49;161.70;;;58.30;;
11835;SDS011;5977;51.972;7.640;2023-06-26T12:30:17;161.53;;;58.40;;
11835;SDS011;5977;51.972;7.640;2023-06-26T12:32:45;162.10;;;58.90;;
11835;SDS011;5977;51.972;7.640;2023-06-26T12:35:14;162.00;;;58.47;;
11835;SDS011;5977;51.972;7.640;2023-06-26T12:37:43;162.30;;;59.07;;
11835;SDS011;5977;51.972;7.640;2023-06-26T12:40:18;162.63;;;59.20;;
11835;SDS011;5977;51.972;7.640;2023-06-26T12:42:49;162.40;;;58.53;;
11835;SDS011;5977;51.972;7.640;2023-06-26T12:45:17;162.07;;;59.03;;
11835;SDS011;5977;51.972;7.640;2023-06-26T12:47:49;161.87;;;59.13;;
11835;SDS011;5977;51.972;7.640;2023-06-26T12:50:17;161.97;;;58.50;;
11835;SDS011;5977;51.972;7.640;2023-06-26T12:52:46;161.33;;;58.10;;
11835;SDS011;5977;51.972;7.640;2023-06-26T12:55:14;162.10;;;58.60;;
11835;SDS011;5977;51.972;7.640;2023-06-26T12:57:43;161.97;;;58.47;;
11835;SDS011;5977;51.972;7.640;2023-06-26T13:00:11;162.23;;;58.90;;
11835;SDS011;5977;51.972;7.640;2023-06-26T13:02:40;162.17;;;58.60;;
11835;SDS011;5977;51.972;7.640;2023-06-26T13:05:08;162.20;;;58.77;;
11835;SDS011;5977;51.972;7.640;2023-06-26T13:07:36;161.70;;;58.47;;
11835;SDS011;5977;51.972;7.640;2023-06-26T13:10:06;161.67;;;58.57;;
11835;SDS011;5977;51.972;7.640;2023-06-26T13:12:34;162.27;;;59.33;;
11835;SDS011;5977;51.972;7.640;2023-06-26T13:15:02;161.87;;;58.53;;
11835;SDS011;5977;51.972;7.640;2023-06-26T13:17:32;161.77;;;58.17;;
11835;SDS011;5977;51.972;7.640;2023-06-26T13:19:59;161.77;;;58.10;;
11835;SDS011;5977;51.972;7.640;2023-06-26T13:22:28;162.03;;;58.33;;
11835;SDS011;5977;51.972;7.640;2023-06-26T13:24:55;162.10;;;58.57;;
11835;SDS011;5977;51.972;7.640;2023-06-26T13:27:25;162.13;;;58.67;;
11835;SDS011;5977;51.972;7.640;2023-06-26T13:29:52;162.23;;;58.53;;
11835;SDS011;5977;51.972;7.640;2023-06-26T13:32:20;161.60;;;58.70;;
11835;SDS011;5977;51.972;7.640;2023-06-26T13:34:48;161.60;;;58.50;;
11835;SDS011;5977;51.972;7.640;2023-06-26T13:37:16;161.53;;;58.87;;
11835;SDS011;5977;51.972;7.640;2023-06-26T13:39:44;161.97;;;58.90;;
11835;SDS011;5977;51.972;7.640;2023-06-26T13:42:15;162.20;;;59.30;;
11835;SDS011;5977;51.972;7.640;2023-06-26T13:44:45;162.17;;;58.60;;
11835;SDS011;5977;51.972;7.640;2023-06-26T13:47:28;162.17;;;59.13;;
11835;SDS011;5977;51.972;7.640;2023-06-26T13:49:56;161.50;;;58.07;;
11835;SDS011;5977;51.972;7.640;2023-06-26T13:52:24;162.37;;;59.10;;
11835;SDS011;5977;51.972;7.640;2023-06-26T13:54:51;162.43;;;59.13;;
11835;SDS011;5977;51.972;7.640;2023-06-26T13:57:19;162.40;;;59.17;;
11835;SDS011;5977;51.972;7.640;2023-06-26T13:59:49;162.50;;;59.17;;
11835;SDS011;5977;51.972;7.640;2023-06-26T14:02:17;161.63;;;58.67;;
11835;SDS011;5977;51.972;7.640;2023-06-26T14:04:45;161.20;;;57.93;;
11835;SDS011;5977;51.972;7.640;2023-06-26T14:07:13;161.57;;;58.30;;
11835;SDS011;5977;51.972;7.640;2023-06-26T14:09:41;162.17;;;58.93;;
11835;SDS011;5977;51.972;7.640;2023-06-26T14:12:09;161.73;;;58.87;;
11835;SDS011;5977;51.972;7.640;2023-06-26T14:14:37;161.93;;;59.10;;
11835;SDS011;5977;51.972;7.640;2023-06-26T14:17:06;161.60;;;59.07;;
11835;SDS011;5977;51.972;7.640;2023-06-26T14:19:35;162.67;;;59.60;;
11835;SDS011;5977;51.972;7.640;2023-06-26T14:22:03;161.63;;;58.73;;
11835;SDS011;5977;51.972;7.640;2023-06-26T14:24:31;161.33;;;58.33;;
11835;SDS011;5977;51.972;7.640;2023-06-26T14:26:59;162.13;;;59.43;;
11835;SDS011;5977;51.972;7.640;2023-06-26T14:29:27;162.43;;;59.23;;
11835;SDS011;5977;51.972;7.640;2023-06-26T14:31:55;161.90;;;58.87;;